createdAt,value
2023-05-24T00:00:48.822Z,94897.69
2023-05-24T00:03:19.128Z,94904.63
2023-05-24T00:05:47.241Z,94903.22
2023-05-24T00:08:16.104Z,94910.88
2023-05-24T00:10:44.514Z,94901.50
2023-05-24T00:13:12.637Z,94914.13
2023-05-24T00:15:40.545Z,94914.81
2023-05-24T00:18:08.545Z,94894.38
2023-05-24T00:20:37.939Z,94902.56
2023-05-24T00:23:06.025Z,94894.50
2023-05-24T00:25:33.990Z,94904.94
2023-05-24T00:28:01.918Z,94912.97
2023-05-24T00:30:29.848Z,94909.88
2023-05-24T00:32:58.234Z,94916.13
2023-05-24T00:35:26.234Z,94912.25
2023-05-24T00:37:55.529Z,94907.47
2023-05-24T00:40:23.457Z,94899.59
2023-05-24T00:42:51.419Z,94880.25
2023-05-24T00:45:19.347Z,94839.94
2023-05-24T00:47:47.972Z,94884.00
2023-05-24T00:50:17.372Z,94905.97
2023-05-24T00:52:46.209Z,94908.94
2023-05-24T00:55:15.998Z,94897.47
2023-05-24T00:57:44.795Z,94901.97
2023-05-24T01:00:13.799Z,94912.19
2023-05-24T01:02:42.133Z,94902.22
2023-05-24T01:05:13.785Z,94906.75
2023-05-24T01:07:55.665Z,94897.81
2023-05-24T01:10:33.461Z,94892.50
2023-05-24T01:13:08.538Z,94884.00
2023-05-24T01:15:46.928Z,94896.66
2023-05-24T01:18:22.256Z,94911.13
2023-05-24T01:21:02.628Z,94879.97
2023-05-24T01:23:43.246Z,94882.16
2023-05-24T01:26:30.414Z,94918.41
2023-05-24T01:29:02.377Z,94922.69
2023-05-24T01:31:30.371Z,94923.31
2023-05-24T01:33:58.880Z,94926.03
2023-05-24T01:36:27.098Z,94918.19
2023-05-24T01:38:55.144Z,94918.75
2023-05-24T01:41:34.422Z,94916.91
2023-05-24T01:44:12.603Z,94922.59
2023-05-24T01:46:40.723Z,94904.78
2023-05-24T01:49:18.521Z,94912.09
2023-05-24T01:51:51.969Z,94919.25
2023-05-24T01:54:24.511Z,94917.63
2023-05-24T01:56:55.074Z,94911.63
2023-05-24T01:59:27.070Z,94892.56
2023-05-24T02:01:55.791Z,94917.31
2023-05-24T02:04:24.044Z,94914.16
2023-05-24T02:06:52.177Z,94917.66
2023-05-24T02:09:20.277Z,94911.91
2023-05-24T02:11:48.271Z,94913.03
2023-05-24T02:14:17.413Z,94911.13
2023-05-24T02:16:47.516Z,94904.78
2023-05-24T02:19:17.216Z,94892.78
2023-05-24T02:21:45.632Z,94896.06
2023-05-24T02:24:13.696Z,94891.28
2023-05-24T02:26:41.922Z,94896.78
2023-05-24T02:29:09.910Z,94903.53
2023-05-24T02:31:38.276Z,94886.69
2023-05-24T02:34:07.996Z,94908.38
2023-05-24T02:36:37.622Z,94888.94
2023-05-24T02:39:06.339Z,94901.63
2023-05-24T02:41:34.252Z,94903.31
2023-05-24T02:44:02.101Z,94879.63
2023-05-24T02:46:30.068Z,94869.13
2023-05-24T02:48:57.991Z,94880.72
2023-05-24T02:51:27.224Z,94898.09
2023-05-24T02:53:55.282Z,94895.38
2023-05-24T02:56:23.190Z,94900.38
2023-05-24T02:58:51.168Z,94898.53
2023-05-24T03:01:19.940Z,94899.56
2023-05-24T03:03:48.219Z,94890.19
2023-05-24T03:06:16.411Z,94904.66
2023-05-24T03:08:46.110Z,94900.16
2023-05-24T03:11:14.167Z,94910.97
2023-05-24T03:13:42.578Z,94920.59
2023-05-24T03:16:10.671Z,94865.31
2023-05-24T03:18:38.573Z,94863.19
2023-05-24T03:21:07.622Z,94916.91
2023-05-24T03:23:35.680Z,94918.94
2023-05-24T03:26:05.181Z,94918.84
2023-05-24T03:28:33.851Z,94900.00
2023-05-24T03:31:01.789Z,94925.94
2023-05-24T03:33:30.113Z,94917.94
2023-05-24T03:35:57.978Z,94900.50
2023-05-24T03:38:26.017Z,94932.50
2023-05-24T03:40:54.024Z,94930.63
2023-05-24T03:43:23.336Z,94932.84
2023-05-24T03:45:52.296Z,94941.38
2023-05-24T03:48:20.950Z,94929.84
2023-05-24T03:50:49.087Z,94907.34
2023-05-24T03:53:17.147Z,94916.41
2023-05-24T03:55:45.104Z,94900.66
2023-05-24T03:58:13.742Z,94933.63
2023-05-24T04:00:43.393Z,94932.19
2023-05-24T04:03:12.282Z,94873.50
2023-05-24T04:05:40.410Z,94928.03
2023-05-24T04:08:08.538Z,94937.66
2023-05-24T04:10:36.424Z,94939.34
2023-05-24T04:13:04.349Z,94923.78
2023-05-24T04:15:33.114Z,94934.22
2023-05-24T04:18:03.483Z,94935.81
2023-05-24T04:20:31.596Z,94854.28
2023-05-24T04:23:00.039Z,94938.06
2023-05-24T04:25:28.050Z,94941.25
2023-05-24T04:27:56.234Z,94939.16
2023-05-24T04:30:24.445Z,94938.13
2023-05-24T04:32:52.969Z,94940.97
2023-05-24T04:35:22.708Z,94945.91
2023-05-24T04:37:50.866Z,94919.81
2023-05-24T04:40:20.764Z,94926.94
2023-05-24T04:42:48.943Z,94941.88
2023-05-24T04:45:17.239Z,94949.22
2023-05-24T04:47:45.251Z,94956.97
2023-05-24T04:50:13.295Z,94942.16
2023-05-24T04:52:42.589Z,94960.31
2023-05-24T04:55:11.526Z,94961.41
2023-05-24T04:57:39.508Z,94944.59
2023-05-24T05:00:10.287Z,94956.31
2023-05-24T05:02:38.288Z,94940.63
2023-05-24T05:05:07.177Z,94965.16
2023-05-24T05:07:35.062Z,94949.19
2023-05-24T05:10:04.457Z,94964.63
2023-05-24T05:12:32.354Z,94941.69
2023-05-24T05:15:00.294Z,94966.44
2023-05-24T05:17:28.200Z,94964.41
2023-05-24T05:19:56.082Z,94968.38
2023-05-24T05:22:24.112Z,94969.25
2023-05-24T05:24:52.685Z,94980.22
2023-05-24T05:27:21.991Z,94952.56
2023-05-24T05:29:49.975Z,94934.81
2023-05-24T05:32:18.032Z,94974.69
2023-05-24T05:34:46.485Z,94971.88
2023-05-24T05:37:14.656Z,94975.38
2023-05-24T05:39:42.578Z,94952.09
2023-05-24T05:42:10.467Z,94946.50
2023-05-24T05:44:39.784Z,94956.25
2023-05-24T05:47:09.523Z,94922.13
2023-05-24T05:49:37.570Z,94969.84
2023-05-24T05:52:06.255Z,94980.47
2023-05-24T05:54:34.493Z,94957.63
2023-05-24T05:57:02.451Z,94974.00
2023-05-24T05:59:30.406Z,94968.88
2023-05-24T06:01:59.676Z,94971.09
2023-05-24T06:04:27.639Z,94972.72
2023-05-24T06:06:55.569Z,94970.72
2023-05-24T06:09:23.615Z,94974.16
2023-05-24T06:11:51.619Z,94989.50
2023-05-24T06:14:21.410Z,94955.69
2023-05-24T06:16:49.502Z,94993.56
2023-05-24T06:19:19.130Z,94988.81
2023-05-24T06:21:48.491Z,94978.75
2023-05-24T06:24:20.550Z,94974.78
2023-05-24T06:26:48.865Z,94944.09
2023-05-24T06:29:16.928Z,94974.50
2023-05-24T06:31:44.972Z,94980.19
2023-05-24T06:34:13.094Z,94966.94
2023-05-24T06:36:43.072Z,94987.53
2023-05-24T06:39:11.454Z,94977.56
2023-05-24T06:41:39.500Z,94977.66
2023-05-24T06:44:07.546Z,94987.53
2023-05-24T06:46:35.825Z,94973.91
2023-05-24T06:49:04.390Z,94974.81
2023-05-24T06:51:33.950Z,94977.59
2023-05-24T06:54:03.446Z,94971.78
2023-05-24T06:56:31.391Z,94978.63
2023-05-24T06:59:00.009Z,94981.03
2023-05-24T07:01:28.404Z,94966.25
2023-05-24T07:03:56.421Z,94922.16
2023-05-24T07:06:25.211Z,94967.63
2023-05-24T07:08:53.148Z,94941.81
2023-05-24T07:11:22.893Z,94931.38
2023-05-24T07:13:50.798Z,94955.19
2023-05-24T07:16:18.841Z,94967.22
2023-05-24T07:18:46.850Z,94973.31
2023-05-24T07:21:14.746Z,94975.69
2023-05-24T07:23:42.815Z,94979.09
2023-05-24T07:26:10.761Z,94982.72
2023-05-24T07:28:40.568Z,94984.75
2023-05-24T07:31:10.409Z,94986.44
2023-05-24T07:33:38.829Z,94945.34
2023-05-24T07:36:07.468Z,94982.47
2023-05-24T07:38:36.191Z,94985.38
2023-05-24T07:41:04.919Z,94955.78
2023-05-24T07:43:33.142Z,94988.44
2023-05-24T07:46:02.997Z,94968.53
2023-05-24T07:48:30.860Z,94975.38
2023-05-24T07:50:58.781Z,94972.06
2023-05-24T07:53:26.800Z,94956.91
2023-05-24T07:55:55.226Z,94973.44
2023-05-24T07:58:23.224Z,94976.66
2023-05-24T08:00:51.309Z,94984.97
2023-05-24T08:03:20.731Z,94978.44
2023-05-24T08:05:48.686Z,94969.44
2023-05-24T08:08:16.660Z,94968.38
2023-05-24T08:10:44.595Z,94956.38
2023-05-24T08:13:12.585Z,94908.09
2023-05-24T08:15:40.940Z,94968.22
2023-05-24T08:18:09.635Z,94954.69
2023-05-24T08:20:40.936Z,94980.22
2023-05-24T08:23:09.030Z,94974.28
2023-05-24T08:25:36.995Z,94972.22
2023-05-24T08:28:04.982Z,94969.13
2023-05-24T08:30:33.358Z,94954.63
2023-05-24T08:33:01.691Z,94970.94
2023-05-24T08:35:30.360Z,94957.84
2023-05-24T08:37:59.742Z,94970.91
2023-05-24T08:40:27.678Z,94975.25
2023-05-24T08:42:58.011Z,94972.38
2023-05-24T08:45:30.366Z,94978.31
2023-05-24T08:47:58.736Z,94975.81
2023-05-24T08:50:27.123Z,94969.94
2023-05-24T08:52:55.840Z,94970.63
2023-05-24T08:55:25.862Z,94960.97
2023-05-24T08:57:53.905Z,94967.31
2023-05-24T09:00:22.902Z,94943.94
2023-05-24T09:02:51.510Z,94975.06
2023-05-24T09:05:21.974Z,94966.88
2023-05-24T09:07:51.582Z,94964.91
2023-05-24T09:10:21.604Z,94970.34
2023-05-24T09:12:57.614Z,94960.38
2023-05-24T09:15:25.891Z,94964.56
2023-05-24T09:17:53.849Z,94961.91
2023-05-24T09:20:22.614Z,94922.69
2023-05-24T09:22:53.273Z,94958.16
2023-05-24T09:25:21.787Z,94941.53
2023-05-24T09:27:55.160Z,94960.38
2023-05-24T09:30:23.363Z,94963.25
2023-05-24T09:32:57.675Z,94967.38
2023-05-24T09:35:26.911Z,94968.53
2023-05-24T09:38:00.101Z,94953.44
2023-05-24T09:40:28.934Z,94908.88
2023-05-24T09:43:09.928Z,94934.09
2023-05-24T09:45:44.471Z,94962.22
2023-05-24T09:48:13.687Z,94935.38
2023-05-24T09:50:42.492Z,94958.25
2023-05-24T09:53:10.608Z,94949.69
2023-05-24T09:55:38.967Z,94939.19
2023-05-24T09:58:09.601Z,94943.84
2023-05-24T10:00:41.672Z,94951.34
2023-05-24T10:03:12.790Z,94947.41
2023-05-24T10:05:43.554Z,94941.88
2023-05-24T10:08:11.612Z,94881.84
2023-05-24T10:10:39.551Z,94941.63
2023-05-24T10:13:08.896Z,94948.50
2023-05-24T10:15:36.782Z,94939.78
2023-05-24T10:18:10.586Z,94940.47
2023-05-24T10:20:57.182Z,94942.53
2023-05-24T10:23:26.879Z,94937.63
2023-05-24T10:26:01.674Z,94909.25
2023-05-24T10:28:32.714Z,94937.09
2023-05-24T10:31:07.455Z,94914.00
2023-05-24T10:33:38.444Z,94926.72
2023-05-24T10:36:09.992Z,94905.19
2023-05-24T10:38:40.950Z,94909.66
2023-05-24T10:41:09.408Z,94879.25
2023-05-24T10:43:39.433Z,94929.50
2023-05-24T10:46:10.705Z,94912.88
2023-05-24T10:48:42.059Z,94910.19
2023-05-24T10:51:36.680Z,94907.63
2023-05-24T10:54:15.873Z,94900.59
2023-05-24T10:56:46.328Z,94905.22
2023-05-24T10:59:37.332Z,94881.56
2023-05-24T11:02:09.854Z,94901.19
2023-05-24T11:04:40.237Z,94879.75
2023-05-24T11:07:10.564Z,94891.31
2023-05-24T11:09:46.206Z,94884.84
2023-05-24T11:12:17.534Z,94902.25
2023-05-24T11:14:51.354Z,94884.84
2023-05-24T11:17:23.935Z,94900.94
2023-05-24T11:19:53.586Z,94892.91
2023-05-24T11:22:23.034Z,94893.22
2023-05-24T11:24:51.771Z,94879.47
2023-05-24T11:27:19.702Z,94892.00
2023-05-24T11:29:50.229Z,94882.19
2023-05-24T11:32:20.006Z,94884.72
2023-05-24T11:34:49.134Z,94887.09
2023-05-24T11:37:18.778Z,94881.88
2023-05-24T11:39:51.515Z,94869.38
2023-05-24T11:42:19.719Z,94881.47
2023-05-24T11:44:51.360Z,94876.38
2023-05-24T11:47:22.496Z,94851.25
2023-05-24T11:49:52.027Z,94882.50
2023-05-24T11:52:20.064Z,94881.13
2023-05-24T11:54:47.996Z,94869.66
2023-05-24T11:57:16.890Z,94867.50
2023-05-24T11:59:44.867Z,94861.63
2023-05-24T12:02:14.636Z,94837.34
2023-05-24T12:04:42.638Z,94853.28
2023-05-24T12:07:12.229Z,94851.53
2023-05-24T12:09:40.218Z,94851.09
2023-05-24T12:12:08.670Z,94846.00
2023-05-24T12:14:37.359Z,94799.75
2023-05-24T12:17:05.389Z,94848.53
2023-05-24T12:19:36.884Z,94829.94
2023-05-24T12:22:06.547Z,94842.69
2023-05-24T12:24:35.279Z,94839.94
2023-05-24T12:27:06.937Z,94830.38
2023-05-24T12:29:36.902Z,94773.19
2023-05-24T12:32:05.896Z,94828.31
2023-05-24T12:34:35.229Z,94805.72
2023-05-24T12:37:03.912Z,94820.53
2023-05-24T12:39:34.317Z,94824.97
2023-05-24T12:42:03.718Z,94822.41
2023-05-24T12:44:34.027Z,94829.09
2023-05-24T12:47:04.209Z,94819.06
2023-05-24T12:49:33.014Z,94803.84
2023-05-24T12:52:02.934Z,94823.16
2023-05-24T12:54:31.425Z,94814.25
2023-05-24T12:57:02.661Z,94814.25
2023-05-24T12:59:30.919Z,94814.69
2023-05-24T13:01:58.863Z,94795.59
2023-05-24T13:04:28.141Z,94818.38
2023-05-24T13:06:56.214Z,94812.75
2023-05-24T13:09:26.288Z,94809.75
2023-05-24T13:11:55.274Z,94804.13
2023-05-24T13:14:23.377Z,94773.72
2023-05-24T13:16:51.586Z,94807.16
2023-05-24T13:19:19.639Z,94799.84
2023-05-24T13:21:47.636Z,94798.66
2023-05-24T13:24:17.456Z,94795.19
2023-05-24T13:26:47.220Z,94796.16
2023-05-24T13:31:47.879Z,94793.63
2023-05-24T13:34:17.671Z,94749.66
2023-05-24T13:36:47.367Z,94776.50
2023-05-24T13:39:16.457Z,94783.72
2023-05-24T13:41:46.753Z,94774.91
2023-05-24T13:44:15.761Z,94661.22
2023-05-24T13:46:44.561Z,94721.28
2023-05-24T13:49:13.784Z,94806.84
2023-05-24T13:51:42.255Z,94751.38
2023-05-24T13:54:10.209Z,94774.84
2023-05-24T13:56:39.675Z,94797.22
2023-05-24T13:59:09.896Z,94767.91
2023-05-24T14:01:39.345Z,94810.69
2023-05-24T14:04:08.076Z,94815.06
2023-05-24T14:06:37.680Z,94811.00
2023-05-24T14:09:07.635Z,94764.41
2023-05-24T14:11:35.764Z,94804.25
2023-05-24T14:16:36.743Z,94806.75
2023-05-24T14:19:05.260Z,94797.09
2023-05-24T14:21:33.571Z,94816.16
2023-05-24T14:24:01.477Z,94807.13
2023-05-24T14:26:29.480Z,94806.25
2023-05-24T14:28:57.361Z,94803.66
2023-05-24T14:31:25.607Z,94813.44
2023-05-24T14:33:54.969Z,94810.66
2023-05-24T14:36:22.995Z,94773.59
2023-05-24T14:38:51.010Z,94807.88
2023-05-24T14:41:19.351Z,94800.09
2023-05-24T14:43:47.187Z,94790.13
2023-05-24T14:46:15.081Z,94814.88
2023-05-24T14:48:43.267Z,94820.91
2023-05-24T14:51:12.539Z,94820.72
2023-05-24T14:53:40.414Z,94818.56
2023-05-24T14:56:10.142Z,94811.19
2023-05-24T14:58:38.152Z,94798.25
2023-05-24T15:01:06.871Z,94778.53
2023-05-24T15:03:35.267Z,94807.25
2023-05-24T15:06:03.767Z,94813.31
2023-05-24T15:08:34.270Z,94803.78
2023-05-24T15:11:02.173Z,94803.41
2023-05-24T15:13:30.130Z,94812.59
2023-05-24T15:16:00.489Z,94806.00
2023-05-24T15:18:29.118Z,94782.66
2023-05-24T15:20:57.293Z,94802.31
2023-05-24T15:23:25.693Z,94783.53
2023-05-24T15:25:55.177Z,94812.75
2023-05-24T15:28:26.035Z,94802.13
2023-05-24T15:30:54.468Z,94788.31
2023-05-24T15:33:22.576Z,94807.16
2023-05-24T15:35:50.626Z,94798.47
2023-05-24T15:38:18.839Z,94771.78
2023-05-24T15:40:47.075Z,94805.16
2023-05-24T15:43:19.446Z,94794.22
2023-05-24T15:45:48.638Z,94808.06
2023-05-24T15:48:16.628Z,94805.16
2023-05-24T15:51:06.465Z,94790.34
2023-05-24T15:53:32.889Z,94814.06
2023-05-24T15:56:00.916Z,94819.56
2023-05-24T15:58:30.386Z,94817.72
2023-05-24T16:00:58.436Z,94818.28
2023-05-24T16:03:26.608Z,94820.53
2023-05-24T16:05:54.695Z,94798.59
2023-05-24T16:08:27.629Z,94821.69
2023-05-24T16:10:55.828Z,94827.50
2023-05-24T16:13:23.818Z,94822.19
2023-05-24T16:15:53.105Z,94830.44
2023-05-24T16:18:22.960Z,94832.44
2023-05-24T16:20:51.826Z,94842.16
2023-05-24T16:23:23.185Z,94840.28
2023-05-24T16:25:51.469Z,94816.50
2023-05-24T16:28:24.118Z,94843.50
2023-05-24T16:30:56.040Z,94840.88
2023-05-24T16:33:24.646Z,94818.00
2023-05-24T16:35:56.156Z,94836.94
2023-05-24T16:38:24.617Z,94841.31
2023-05-24T16:40:52.868Z,94832.41
2023-05-24T16:43:21.657Z,94838.94
2023-05-24T16:45:49.993Z,94845.53
2023-05-24T16:48:21.408Z,94838.13
2023-05-24T16:50:50.500Z,94842.13
2023-05-24T16:53:20.472Z,94846.19
2023-05-24T16:55:53.686Z,94850.41
2023-05-24T16:58:21.696Z,94857.22
2023-05-24T17:00:49.738Z,94847.25
2023-05-24T17:03:22.073Z,94841.72
2023-05-24T17:05:50.389Z,94846.53
2023-05-24T17:08:18.993Z,94852.34
2023-05-24T17:10:46.928Z,94841.97
2023-05-24T17:13:14.832Z,94847.31
2023-05-24T17:15:42.811Z,94854.06
2023-05-24T17:18:10.842Z,94831.59
2023-05-24T17:20:40.476Z,94851.63
2023-05-24T17:23:08.465Z,94842.81
2023-05-24T17:25:36.494Z,94846.13
2023-05-24T17:28:04.551Z,94843.16
2023-05-24T17:30:33.317Z,94858.75
2023-05-24T17:33:01.738Z,94835.22
2023-05-24T17:35:30.144Z,94845.19
2023-05-24T17:38:03.190Z,94861.53
2023-05-24T17:40:31.088Z,94858.38
2023-05-24T17:42:59.250Z,94865.25
2023-05-24T17:45:27.392Z,94868.09
2023-05-24T17:47:55.393Z,94401.72
2023-05-24T17:50:23.479Z,94882.00
2023-05-24T17:52:51.561Z,94877.13
2023-05-24T17:55:20.845Z,94891.13
2023-05-24T17:57:49.086Z,94879.19
2023-05-24T18:00:17.968Z,94881.63
2023-05-24T18:02:46.419Z,94902.06
2023-05-24T18:05:16.039Z,94889.44
2023-05-24T18:07:44.083Z,94870.75
2023-05-24T18:10:12.833Z,94866.84
2023-05-24T18:12:42.221Z,94910.97
2023-05-24T18:15:10.817Z,94903.56
2023-05-24T18:17:38.742Z,94861.75
2023-05-24T18:20:07.573Z,94914.00
2023-05-24T18:22:35.524Z,94922.97
2023-05-24T18:25:03.650Z,94923.22
2023-05-24T18:27:31.538Z,94933.03
2023-05-24T18:30:01.112Z,94925.72
2023-05-24T18:32:29.098Z,94938.69
2023-05-24T18:34:57.113Z,94888.31
2023-05-24T18:37:25.068Z,94940.16
2023-05-24T18:39:52.990Z,94951.19
2023-05-24T18:42:20.865Z,94950.16
2023-05-24T18:44:48.792Z,94956.84
2023-05-24T18:47:18.214Z,94942.13
2023-05-24T18:49:46.233Z,94950.88
2023-05-24T18:52:14.248Z,94970.09
2023-05-24T18:54:42.283Z,94969.47
2023-05-24T18:57:10.239Z,94966.28
2023-05-24T18:59:38.865Z,94969.03
2023-05-24T19:02:07.561Z,94979.22
2023-05-24T19:04:36.899Z,94974.19
2023-05-24T19:07:04.999Z,94914.09
2023-05-24T19:09:32.898Z,94966.34
2023-05-24T19:12:04.605Z,94992.16
2023-05-24T19:14:32.607Z,94994.03
2023-05-24T19:17:00.919Z,94936.53
2023-05-24T19:19:28.936Z,94991.94
2023-05-24T19:21:58.253Z,95007.59
2023-05-24T19:24:26.183Z,95006.34
2023-05-24T19:26:54.290Z,94988.88
2023-05-24T19:29:22.239Z,94989.06
2023-05-24T19:31:51.173Z,95004.72
2023-05-24T19:34:19.599Z,95018.81
2023-05-24T19:36:47.532Z,95022.25
2023-05-24T19:39:16.820Z,95019.31
2023-05-24T19:41:44.881Z,95016.34
2023-05-24T19:44:12.798Z,95009.88
2023-05-24T19:46:40.730Z,95005.13
2023-05-24T19:49:08.688Z,94993.78
2023-05-24T19:51:37.579Z,95004.63
2023-05-24T19:54:05.672Z,95010.56
2023-05-24T19:56:34.958Z,95009.06
2023-05-24T19:59:02.954Z,94996.38
2023-05-24T20:01:31.069Z,95015.88
2023-05-24T20:03:59.195Z,94998.09
2023-05-24T20:06:27.581Z,95009.31
2023-05-24T20:08:57.812Z,95005.06
2023-05-24T20:11:26.045Z,95008.84
2023-05-24T20:13:56.180Z,95011.31
2023-05-24T20:16:24.532Z,94916.97
2023-05-24T20:18:52.565Z,95010.69
2023-05-24T20:21:20.599Z,94981.50
2023-05-24T20:23:50.698Z,95011.66
2023-05-24T20:26:18.658Z,95003.47
2023-05-24T20:28:47.099Z,95013.06
2023-05-24T20:31:16.693Z,95014.22
2023-05-24T20:33:44.834Z,95020.72
2023-05-24T20:36:14.942Z,95031.53
2023-05-24T20:38:42.939Z,95031.09
2023-05-24T20:41:11.096Z,95036.88
2023-05-24T20:43:39.146Z,94928.88
2023-05-24T20:46:07.279Z,95032.41
2023-05-24T20:48:36.585Z,95038.41
2023-05-24T20:51:04.573Z,95039.41
2023-05-24T20:53:32.720Z,95035.41
2023-05-24T20:56:01.986Z,95040.41
2023-05-24T20:58:30.979Z,95038.63
2023-05-24T21:00:59.234Z,95039.38
2023-05-24T21:03:27.298Z,95044.59
2023-05-24T21:05:56.731Z,95046.34
2023-05-24T21:08:24.678Z,95034.13
2023-05-24T21:10:55.596Z,95045.84
2023-05-24T21:13:25.734Z,95044.56
2023-05-24T21:15:53.682Z,94987.53
2023-05-24T21:18:21.622Z,95032.34
2023-05-24T21:20:49.832Z,95045.28
2023-05-24T21:23:19.095Z,95017.84
2023-05-24T21:25:47.007Z,95048.75
2023-05-24T21:28:15.148Z,95048.78
2023-05-24T21:30:43.212Z,95052.78
2023-05-24T21:33:12.314Z,95056.78
2023-05-24T21:35:40.369Z,95017.44
2023-05-24T21:38:08.330Z,95047.31
2023-05-24T21:40:37.606Z,95042.09
2023-05-24T21:43:05.897Z,95040.09
2023-05-24T21:45:33.771Z,95006.00
2023-05-24T21:48:01.767Z,95041.63
2023-05-24T21:50:29.705Z,95043.31
2023-05-24T21:52:57.625Z,95046.31
2023-05-24T21:55:25.830Z,95045.81
2023-05-24T21:57:55.106Z,95039.34
2023-05-24T22:00:23.647Z,95049.72
2023-05-24T22:02:51.713Z,95047.25
2023-05-24T22:05:19.954Z,95051.50
2023-05-24T22:07:47.896Z,95047.50
2023-05-24T22:10:15.885Z,95035.56
2023-05-24T22:12:43.885Z,95038.09
2023-05-24T22:15:13.420Z,95044.81
2023-05-24T22:17:42.035Z,94935.16
2023-05-24T22:20:11.342Z,95045.81
2023-05-24T22:22:40.332Z,95049.78
2023-05-24T22:25:10.669Z,95009.41
2023-05-24T22:27:38.640Z,95045.81
2023-05-24T22:30:07.472Z,95037.59
2023-05-24T22:32:37.004Z,95042.59
2023-05-24T22:35:05.329Z,95041.84
2023-05-24T22:37:33.396Z,95044.06
2023-05-24T22:40:01.293Z,95042.31
2023-05-24T22:42:30.282Z,95044.56
2023-05-24T22:44:58.206Z,95044.31
2023-05-24T22:47:26.877Z,95037.34
2023-05-24T22:49:56.601Z,95045.28
2023-05-24T22:52:24.719Z,95042.56
2023-05-24T22:54:52.597Z,95034.31
2023-05-24T22:57:21.809Z,95049.72
2023-05-24T22:59:49.771Z,95047.00
2023-05-24T23:02:17.673Z,95050.75
2023-05-24T23:04:46.386Z,95060.47
2023-05-24T23:07:16.703Z,95046.47
2023-05-24T23:09:44.747Z,95049.94
2023-05-24T23:12:14.209Z,95054.47
2023-05-24T23:14:46.414Z,95051.50
2023-05-24T23:17:14.620Z,95054.63
2023-05-24T23:19:46.578Z,95046.56
2023-05-24T23:22:18.626Z,95046.47
2023-05-24T23:24:47.681Z,95026.81
2023-05-24T23:27:15.908Z,95017.34
2023-05-24T23:29:43.984Z,95034.41
2023-05-24T23:32:11.913Z,95028.78
2023-05-24T23:34:39.937Z,95030.53
2023-05-24T23:37:08.940Z,95022.81
2023-05-24T23:39:38.184Z,95022.31
2023-05-24T23:42:07.470Z,95036.22
2023-05-24T23:44:36.374Z,95024.69
2023-05-24T23:47:04.377Z,95030.63
2023-05-24T23:49:32.653Z,95034.81
2023-05-24T23:52:00.810Z,95014.13
2023-05-24T23:54:28.720Z,95038.66
2023-05-24T23:56:57.960Z,95038.69
2023-05-24T23:59:25.960Z,95040.44
